Erdogan Senkaya — TCAB3 — position and weather

sailwx.info

Track history (hours):
 
Tides and Currents Weather Stations Pressure Air Temp Water Temp Dewpoint Dewpoint Depression Visibility Wind Speed Wind Dir Waves Ship Positions

Erdogan Senkaya

Last reported at 2018-Feb-22 16:52 UTC. Time now 2018-Feb-24 06:13 UTC.
Position N 38°04' E 022°44'.

Length 68 m; draft 5.4 m.

Type: Cargo ship. MMSI: 271002242.

Date/timePositionNaut miles runAvg speedWind from/ knotsBaromVisibWave heightAir tempDewpointWater temp
2018-Feb-22 16:52N 38°04' E 022°44'3 9.8
2018-Feb-22 16:31N 38°02' E 022°48'5 9.8
2018-Feb-22 16:00N 37°59' E 022°53'5 9.1
2018-Feb-22 15:30N 37°57' E 022°58'3 5.5
2018-Feb-22 15:01N 37°55' E 023°00'2 3.2
2018-Feb-22 14:30N 37°54' E 023°02'0 0.3
2018-Feb-22 14:00N 37°54' E 023°02'2 4.0
2018-Feb-22 13:30N 37°53' E 023°04'5 9.9
2018-Feb-22 13:00N 37°52' E 023°11'5 9.8
2018-Feb-22 12:30N 37°52' E 023°17'5 9.9
2018-Feb-22 12:00N 37°51' E 023°23'5 9.8
2018-Feb-22 11:30N 37°50' E 023°29'5 9.7
2018-Feb-22 11:00N 37°50' E 023°35'4 8.8
2018-Feb-22 10:30N 37°48' E 023°40'5 9.8
2018-Feb-22 10:01N 37°44' E 023°43'  
Track history (hours):
 
Tides and Currents Weather Stations Pressure Air Temp Water Temp Dewpoint Dewpoint Depression Visibility Wind Speed Wind Dir Waves Ship Positions

Erdogan Senkaya

Last reported at 2018-Feb-22 16:52 UTC. Time now 2018-Feb-24 06:13 UTC.
Position N 38°04' E 022°44'.

Length 68 m; draft 5.4 m.

Type: Cargo ship. MMSI: 271002242.

Date/timePositionNaut miles runAvg speedWind from/ knotsBaromVisibWave heightAir tempDewpointWater temp
2018-Feb-22 16:52N 38°04' E 022°44'3 9.8
2018-Feb-22 16:31N 38°02' E 022°48'5 9.8
2018-Feb-22 16:00N 37°59' E 022°53'5 9.1
2018-Feb-22 15:30N 37°57' E 022°58'3 5.5
2018-Feb-22 15:01N 37°55' E 023°00'2 3.2
2018-Feb-22 14:30N 37°54' E 023°02'0 0.3
2018-Feb-22 14:00N 37°54' E 023°02'2 4.0
2018-Feb-22 13:30N 37°53' E 023°04'5 9.9
2018-Feb-22 13:00N 37°52' E 023°11'5 9.8
2018-Feb-22 12:30N 37°52' E 023°17'5 9.9
2018-Feb-22 12:00N 37°51' E 023°23'5 9.8
2018-Feb-22 11:30N 37°50' E 023°29'5 9.7
2018-Feb-22 11:00N 37°50' E 023°35'4 8.8
2018-Feb-22 10:30N 37°48' E 023°40'5 9.8
2018-Feb-22 10:01N 37°44' E 023°43'  

Dump ship's entire track history